Time;durP1;ratioP1;P1;durP2;ratioP2;P2;SDS_P1;SDS_P2;PMS_P1;PMS_P2;Temp;Humidity;BMP_temperature;BMP_pressure;BME280_temperature;BME280_humidity;BME280_pressure;Samples;Min_cycle;Max_cycle;Signal;HPM_P1;HPM_P2
2022/10/13 03:53:11;;;;;;;;;;;21.70;99.90;;;;;;5334605;23;19961;-76
2022/10/13 03:55:38;;;;;;;;;;;21.70;99.90;;;;;;4997203;28;19973;-76
2022/10/13 03:58:04;;;;;;;;;;;21.70;99.90;;;;;;4996828;28;20354;-76
2022/10/13 04:00:31;;;;;;;;;;;21.70;99.90;;;;;;4996834;28;19984;-76
2022/10/13 04:02:58;;;;;;;;;;;21.70;99.90;;;;;;4996899;28;19991;-76
2022/10/13 04:05:25;;;;;;;;;;;21.70;99.90;;;;;;4996775;28;20008;-76
2022/10/13 04:07:51;;;;;;;;;;;21.70;99.90;;;;;;5038074;23;19926;-81
2022/10/13 04:10:19;;;;;;;;;;;21.70;99.90;;;;;;5017366;28;20016;-81
2022/10/13 04:12:48;;;;;;;;;;;21.70;99.90;;;;;;5019679;28;19973;-81
2022/10/13 04:15:15;;;;;;;;;;;21.70;99.90;;;;;;5020309;28;19984;-83
2022/10/13 04:17:41;;;;;;;;;;;21.70;99.90;;;;;;5017697;28;20012;-83
2022/10/13 04:20:09;;;;;;;;;;;21.70;99.90;;;;;;5018393;28;19984;-80
2022/10/13 04:22:35;;;;;;;;;;;21.70;99.90;;;;;;5018018;28;20020;-82
2022/10/13 04:25:02;;;;;;;;;;;21.70;99.90;;;;;;5017406;28;19999;-79
2022/10/13 04:27:31;;;;;;;;;;;21.60;99.90;;;;;;5017367;28;20020;-78
2022/10/13 04:29:58;;;;;;;;;;;21.70;99.90;;;;;;5017038;28;20016;-80
2022/10/13 04:32:24;;;;;;;;;;;21.70;99.90;;;;;;5015794;28;20021;-81
2022/10/13 04:34:51;;;;;;;;;;;21.60;99.90;;;;;;5016208;28;20402;-81
2022/10/13 04:37:18;;;;;;;;;;;21.70;99.90;;;;;;5016635;28;19977;-79
2022/10/13 04:39:44;;;;;;;;;;;21.70;99.90;;;;;;5016749;28;20008;-80
2022/10/13 04:42:11;;;;;;;;;;;21.70;99.90;;;;;;5016422;28;19979;-81
2022/10/13 04:44:39;;;;;;;;;;;21.70;99.90;;;;;;5016441;28;19969;-80
2022/10/13 04:47:06;;;;;;;;;;;21.70;99.90;;;;;;5017427;28;19925;-80
2022/10/13 04:49:32;;;;;;;;;;;21.70;99.90;;;;;;5016844;28;19925;-80
2022/10/13 04:51:59;;;;;;;;;;;21.70;99.90;;;;;;5016598;28;19925;-80
2022/10/13 04:54:26;;;;;;;;;;;21.70;99.90;;;;;;5016552;28;20020;-80
2022/10/13 04:56:52;;;;;;;;;;;21.70;99.90;;;;;;5016688;28;19960;-80
2022/10/13 04:59:19;;;;;;;;;;;21.70;99.90;;;;;;5017396;28;20008;-80
2022/10/13 05:01:47;;;;;;;;;;;21.70;99.90;;;;;;5016997;28;19964;-80
2022/10/13 05:04:14;;;;;;;;;;;21.70;99.90;;;;;;5016390;28;20455;-80
2022/10/13 05:06:41;;;;;;;;;;;21.60;99.90;;;;;;5016392;28;20008;-80
2022/10/13 05:09:09;;;;;;;;;;;21.60;99.90;;;;;;5017575;28;19973;-80
2022/10/13 05:11:36;;;;;;;;;;;21.60;99.90;;;;;;5016765;28;19925;-80
2022/10/13 05:14:02;;;;;;;;;;;21.60;99.90;;;;;;5016498;28;19933;-80
2022/10/13 05:16:30;;;;;;;;;;;21.60;99.90;;;;;;5016651;28;20032;-80
2022/10/13 05:18:58;;;;;;;;;;;21.60;99.90;;;;;;5016538;28;19925;-80
2022/10/13 05:21:25;;;;;;;;;;;21.60;99.90;;;;;;5017950;28;20023;-81
2022/10/13 09:41:52;;;;;;;;;;;21.60;98.80;;;;;;5205059;23;19948;-79
2022/10/13 09:44:26;;;;;;;;;;;21.60;98.60;;;;;;4995704;28;20020;-78
2022/10/13 09:46:54;;;;;;;;;;;21.50;98.50;;;;;;4995738;28;20033;-78
2022/10/13 09:49:28;;;;;;;;;;;21.60;98.50;;;;;;4995119;28;20024;-78
2022/10/13 09:51:59;;;;;;;;;;;21.60;98.50;;;;;;4994959;28;19932;-78
2022/10/13 09:54:26;;;;;;;;;;;21.60;98.50;;;;;;4994707;28;20040;-78
2022/10/13 09:56:57;;;;;;;;;;;21.60;98.40;;;;;;4995363;28;20028;-77
2022/10/13 09:59:29;;;;;;;;;;;21.60;98.30;;;;;;4994938;28;20019;-77
2022/10/13 10:01:57;;;;;;;;;;;21.60;98.20;;;;;;4994829;28;20041;-77
2022/10/13 10:04:29;;;;;;;;;;;21.60;98.10;;;;;;4994809;28;19925;-77
2022/10/13 10:06:56;;;;;;;;;;;21.60;98.00;;;;;;4994798;28;19979;-77
2022/10/13 10:09:32;;;;;;;;;;;21.60;98.00;;;;;;4994752;28;19936;-77
2022/10/13 10:12:01;;;;;;;;;;;21.60;97.90;;;;;;4994701;28;19932;-77
2022/10/13 10:14:29;;;;;;;;;;;21.60;97.80;;;;;;4994373;28;20359;-77
2022/10/13 10:17:00;;;;;;;;;;;21.60;97.70;;;;;;4994370;28;20012;-77
2022/10/13 10:19:31;;;;;;;;;;;21.60;97.70;;;;;;4994640;28;19926;-77
2022/10/13 10:22:02;;;;;;;;;;;21.60;97.60;;;;;;4994593;28;19976;-78
2022/10/13 10:24:33;;;;;;;;;;;21.60;97.60;;;;;;4994611;28;19926;-77
2022/10/13 10:27:03;;;;;;;;;;;21.60;97.80;;;;;;4994209;28;19972;-77
2022/10/13 10:29:36;;;;;;;;;;;21.60;97.40;;;;;;4994574;28;20020;-77
2022/10/13 10:32:05;;;;;;;;;;;21.60;97.70;;;;;;4997088;28;19929;-77
2022/10/13 10:34:37;;;;;;;;;;;21.60;97.30;;;;;;4998307;28;20301;-79
2022/10/13 10:37:14;;;;;;;;;;;21.60;97.20;;;;;;4998314;28;19926;-77
2022/10/13 10:39:46;;;;;;;;;;;21.60;97.20;;;;;;4998469;28;19980;-77
2022/10/13 10:42:20;;;;;;;;;;;21.60;97.20;;;;;;4998185;28;19936;-77
2022/10/13 10:44:48;;;;;;;;;;;21.60;97.10;;;;;;4997994;28;19973;-77
2022/10/13 10:47:19;;;;;;;;;;;21.60;97.10;;;;;;4997515;28;19926;-77
2022/10/13 10:49:46;;;;;;;;;;;21.60;97.00;;;;;;4997794;28;19977;-77
2022/10/13 10:52:18;;;;;;;;;;;21.60;97.00;;;;;;4998085;28;20016;-76
2022/10/13 10:54:49;;;;;;;;;;;21.60;97.00;;;;;;4998247;28;19968;-76
2022/10/13 10:57:19;;;;;;;;;;;21.60;97.00;;;;;;4998185;28;19926;-77
2022/10/13 10:59:55;;;;;;;;;;;21.60;97.00;;;;;;4997885;28;20017;-77
2022/10/13 11:02:37;;;;;;;;;;;21.70;97.00;;;;;;4997787;28;20020;-77
2022/10/13 11:05:04;;;;;;;;;;;21.70;97.10;;;;;;4998032;28;20024;-77
2022/10/13 11:07:49;;;;;;;;;;;21.70;97.10;;;;;;4998963;28;19925;-77
2022/10/13 11:10:19;;;;;;;;;;;21.70;97.20;;;;;;5003492;28;19957;-76
2022/10/13 11:13:01;;;;;;;;;;;21.70;97.20;;;;;;5003782;28;19933;-77
2022/10/13 11:15:32;;;;;;;;;;;21.70;97.60;;;;;;4994821;28;19952;-77
2022/10/13 11:17:59;;;;;;;;;;;21.70;97.40;;;;;;5004600;28;19964;-76
2022/10/13 11:20:44;;;;;;;;;;;21.80;97.50;;;;;;5003545;28;19933;-76
2022/10/13 11:23:30;;;;;;;;;;;21.70;97.60;;;;;;4997524;28;20465;-76
2022/10/13 11:26:18;;;;;;;;;;;21.80;97.90;;;;;;4997625;28;20337;-75
2022/10/13 11:28:46;;;;;;;;;;;21.80;98.20;;;;;;4997597;28;20012;-75
2022/10/13 11:31:47;;;;;;;;;;;21.90;98.60;;;;;;4997451;28;19929;-75
2022/10/13 11:34:25;;;;;;;;;;;21.90;98.60;;;;;;4997568;28;19930;-75
2022/10/13 11:36:55;;;;;;;;;;;21.90;98.70;;;;;;4997190;28;20020;-76
2022/10/13 11:39:58;;;;;;;;;;;22.00;99.00;;;;;;4997387;28;19926;-76
2022/10/13 11:42:45;;;;;;;;;;;22.00;99.10;;;;;;4955540;28;19954;-76
2022/10/13 11:45:18;;;;;;;;;;;22.00;99.30;;;;;;4951706;29;19934;-75
2022/10/13 11:48:03;;;;;;;;;;;22.00;99.40;;;;;;4983089;28;19925;-77
2022/10/13 11:50:33;;;;;;;;;;;22.00;99.50;;;;;;4997438;28;20436;-76
2022/10/13 11:53:06;;;;;;;;;;;22.00;99.60;;;;;;4997317;28;20049;-77
2022/10/13 11:55:39;;;;;;;;;;;22.00;99.60;;;;;;4998219;28;20020;-76
2022/10/13 11:58:10;;;;;;;;;;;22.00;99.70;;;;;;5002153;28;19925;-76
2022/10/13 12:00:37;;;;;;;;;;;22.00;99.80;;;;;;5001900;28;19926;-76
2022/10/13 12:03:06;;;;;;;;;;;22.00;99.90;;;;;;5001857;28;20396;-76
2022/10/13 12:05:33;;;;;;;;;;;22.00;99.90;;;;;;5002205;28;20017;-76
2022/10/13 12:08:03;;;;;;;;;;;22.00;99.90;;;;;;5002069;28;19926;-75
2022/10/13 12:10:31;;;;;;;;;;;22.00;99.90;;;;;;5001738;28;19926;-76
2022/10/13 12:12:58;;;;;;;;;;;22.00;99.90;;;;;;5001987;28;19926;-76
2022/10/13 12:15:30;;;;;;;;;;;22.00;99.90;;;;;;5002110;28;19926;-75
2022/10/13 12:17:57;;;;;;;;;;;22.00;99.90;;;;;;5002212;28;19976;-75
2022/10/13 12:20:26;;;;;;;;;;;22.00;99.90;;;;;;5002198;28;19980;-76
2022/10/13 12:22:54;;;;;;;;;;;22.00;99.90;;;;;;5002784;28;19929;-76
2022/10/13 12:25:22;;;;;;;;;;;22.00;99.90;;;;;;5000235;28;19926;-75
2022/10/13 12:27:51;;;;;;;;;;;22.00;99.90;;;;;;4996123;28;20386;-76
2022/10/13 12:30:21;;;;;;;;;;;22.00;99.90;;;;;;4997014;28;20312;-76
2022/10/13 12:32:50;;;;;;;;;;;22.00;99.90;;;;;;4998452;28;20385;-76
2022/10/13 12:35:18;;;;;;;;;;;22.00;99.90;;;;;;5000611;28;19965;-76
2022/10/13 12:37:46;;;;;;;;;;;22.00;99.90;;;;;;4996162;28;19926;-76
2022/10/13 12:40:14;;;;;;;;;;;22.00;99.90;;;;;;4998686;28;19989;-76
2022/10/13 12:42:41;;;;;;;;;;;22.00;99.90;;;;;;5000144;28;19930;-75
2022/10/13 12:45:14;;;;;;;;;;;22.10;99.90;;;;;;5001490;28;19925;-76
2022/10/13 12:47:47;;;;;;;;;;;22.10;99.90;;;;;;4996418;28;19930;-76
2022/10/13 12:50:20;;;;;;;;;;;22.10;99.90;;;;;;4996289;28;20012;-76
2022/10/13 12:52:49;;;;;;;;;;;22.10;99.90;;;;;;4995701;28;19969;-76
2022/10/13 12:55:17;;;;;;;;;;;22.10;99.90;;;;;;4995133;28;20016;-76
2022/10/13 12:57:45;;;;;;;;;;;22.00;99.90;;;;;;4995579;28;20013;-75
2022/10/13 13:00:21;;;;;;;;;;;22.10;99.90;;;;;;4995802;28;20028;-75
2022/10/13 13:02:50;;;;;;;;;;;22.10;99.90;;;;;;4997176;28;19926;-77
2022/10/13 13:05:30;;;;;;;;;;;22.10;99.90;;;;;;4996545;28;20009;-79
2022/10/13 13:07:58;;;;;;;;;;;22.10;99.90;;;;;;4996219;28;19949;-78
2022/10/13 13:10:24;;;;;;;;;;;22.10;99.90;;;;;;4996772;28;19936;-79
2022/10/13 13:12:52;;;;;;;;;;;22.10;99.90;;;;;;5000591;28;20020;-79
2022/10/13 13:15:21;;;;;;;;;;;22.10;99.90;;;;;;4998164;28;19926;-77
2022/10/13 13:17:47;;;;;;;;;;;22.10;99.90;;;;;;4995577;28;20016;-77
2022/10/13 13:20:22;;;;;;;;;;;22.10;99.90;;;;;;4995316;28;20016;-77
2022/10/13 13:22:49;;;;;;;;;;;22.10;99.90;;;;;;4995963;28;19926;-77
2022/10/13 13:25:18;;;;;;;;;;;22.10;99.90;;;;;;4995697;28;19926;-77
2022/10/13 13:27:44;;;;;;;;;;;22.10;99.90;;;;;;4994820;28;20292;-76
2022/10/13 13:30:12;;;;;;;;;;;22.10;99.90;;;;;;4996333;28;20013;-77
2022/10/13 13:32:39;;;;;;;;;;;22.10;99.90;;;;;;4996224;28;19976;-77
2022/10/13 13:35:07;;;;;;;;;;;22.10;99.90;;;;;;4995607;28;20012;-78
2022/10/13 13:37:35;;;;;;;;;;;22.10;99.90;;;;;;4995199;28;19930;-78
2022/10/13 13:40:02;;;;;;;;;;;22.10;99.90;;;;;;4997375;28;20464;-81
2022/10/13 13:42:30;;;;;;;;;;;22.10;99.90;;;;;;4998154;28;19930;-79
2022/10/13 13:44:57;;;;;;;;;;;22.10;99.90;;;;;;4996805;28;20020;-79
2022/10/13 13:47:26;;;;;;;;;;;22.10;99.90;;;;;;4996982;28;19988;-80
2022/10/13 13:49:53;;;;;;;;;;;22.10;99.90;;;;;;4997894;28;20376;-79
2022/10/13 13:52:20;;;;;;;;;;;22.10;99.90;;;;;;4998344;28;19980;-79
2022/10/13 13:54:47;;;;;;;;;;;22.20;99.90;;;;;;4998298;28;20020;-75
2022/10/13 13:57:14;;;;;;;;;;;22.10;99.90;;;;;;4996980;28;20305;-76
2022/10/13 13:59:42;;;;;;;;;;;22.20;99.90;;;;;;4997397;28;20025;-79
2022/10/13 14:02:12;;;;;;;;;;;22.10;99.90;;;;;;4996988;28;19980;-78
2022/10/13 14:04:39;;;;;;;;;;;22.20;99.90;;;;;;4997644;28;19983;-78
2022/10/13 14:07:05;;;;;;;;;;;22.20;99.90;;;;;;4995906;28;20392;-78
2022/10/13 14:09:32;;;;;;;;;;;22.10;99.90;;;;;;4997963;28;20021;-78
2022/10/13 14:11:59;;;;;;;;;;;22.20;99.90;;;;;;4998151;28;20008;-78
2022/10/13 14:14:25;;;;;;;;;;;22.10;99.90;;;;;;4998009;28;20008;-78
2022/10/13 14:16:53;;;;;;;;;;;22.20;99.90;;;;;;4997082;28;19957;-78
2022/10/13 14:19:20;;;;;;;;;;;22.20;99.90;;;;;;4999238;28;19969;-78
2022/10/13 14:21:47;;;;;;;;;;;22.10;99.90;;;;;;4997620;28;20009;-78
2022/10/13 14:24:14;;;;;;;;;;;22.10;99.90;;;;;;4997239;28;20117;-78
2022/10/13 14:26:40;;;;;;;;;;;22.20;99.90;;;;;;4996449;28;19926;-78
2022/10/13 14:29:07;;;;;;;;;;;22.10;99.90;;;;;;4996942;28;20020;-78
2022/10/13 14:31:34;;;;;;;;;;;22.10;99.90;;;;;;4997452;28;19973;-78
2022/10/13 14:34:02;;;;;;;;;;;22.20;99.90;;;;;;4997108;28;20016;-77
2022/10/13 14:36:28;;;;;;;;;;;22.20;99.90;;;;;;4997060;28;19988;-76
2022/10/13 14:38:55;;;;;;;;;;;22.20;99.90;;;;;;4997864;28;20297;-79
2022/10/13 14:41:22;;;;;;;;;;;22.10;99.90;;;;;;4998189;28;19926;-77
2022/10/13 14:43:51;;;;;;;;;;;22.10;99.90;;;;;;4999780;28;20012;-79
2022/10/13 14:46:18;;;;;;;;;;;22.20;99.90;;;;;;4998646;28;20333;-78
2022/10/13 14:48:45;;;;;;;;;;;22.10;99.90;;;;;;4996990;28;20032;-77
2022/10/13 14:51:13;;;;;;;;;;;22.10;99.90;;;;;;4997334;28;20393;-75
2022/10/13 14:53:40;;;;;;;;;;;22.10;99.90;;;;;;4998412;28;20000;-79
2022/10/13 14:56:14;;;;;;;;;;;22.10;99.90;;;;;;4997200;28;19965;-79
2022/10/13 14:58:41;;;;;;;;;;;22.10;99.90;;;;;;4997794;28;20024;-80
2022/10/13 15:01:08;;;;;;;;;;;22.10;99.90;;;;;;4997649;28;19969;-80
2022/10/13 15:03:34;;;;;;;;;;;22.10;99.90;;;;;;4997436;28;20020;-80
2022/10/13 15:06:01;;;;;;;;;;;22.10;99.90;;;;;;4998249;28;19961;-80
2022/10/13 15:08:29;;;;;;;;;;;22.10;99.90;;;;;;4997235;28;20044;-81
2022/10/13 15:10:58;;;;;;;;;;;22.10;99.90;;;;;;4998872;28;19961;-80
2022/10/13 15:13:25;;;;;;;;;;;22.10;99.90;;;;;;4998224;28;20021;-81
2022/10/13 15:15:51;;;;;;;;;;;22.10;99.90;;;;;;4998742;28;20444;-79
2022/10/13 15:18:18;;;;;;;;;;;22.10;99.90;;;;;;5008320;28;19964;-80
2022/10/13 15:20:46;;;;;;;;;;;22.10;99.90;;;;;;5006598;28;19961;-79
2022/10/13 15:23:13;;;;;;;;;;;22.10;99.90;;;;;;5005610;28;20008;-79
2022/10/13 15:25:49;;;;;;;;;;;22.10;99.90;;;;;;4998360;28;19941;-78
2022/10/13 15:28:16;;;;;;;;;;;22.10;99.90;;;;;;4998803;28;20373;-79
2022/10/13 15:30:43;;;;;;;;;;;22.10;99.90;;;;;;4999224;28;19973;-79
2022/10/13 15:33:09;;;;;;;;;;;22.10;99.90;;;;;;4999235;28;19969;-79
2022/10/13 15:35:36;;;;;;;;;;;22.10;99.90;;;;;;4999991;28;20024;-79
2022/10/13 15:38:03;;;;;;;;;;;22.10;99.90;;;;;;4999874;28;20000;-79
2022/10/13 15:40:32;;;;;;;;;;;22.10;99.90;;;;;;5000734;28;20004;-80
2022/10/13 15:43:00;;;;;;;;;;;22.10;99.90;;;;;;5000062;28;19925;-80
2022/10/13 15:45:27;;;;;;;;;;;22.10;99.90;;;;;;4998986;28;20024;-79
2022/10/13 15:47:55;;;;;;;;;;;22.10;99.90;;;;;;4998049;28;19933;-78
2022/10/13 15:50:22;;;;;;;;;;;22.10;99.90;;;;;;4997502;28;19925;-77
2022/10/13 15:52:48;;;;;;;;;;;22.10;99.90;;;;;;4998091;28;19965;-78
2022/10/13 15:55:15;;;;;;;;;;;22.00;99.90;;;;;;4997938;28;20370;-78
2022/10/13 15:57:42;;;;;;;;;;;22.10;99.90;;;;;;4998314;28;19979;-78
2022/10/13 16:00:11;;;;;;;;;;;22.10;99.90;;;;;;4997847;28;19983;-78
2022/10/13 16:02:39;;;;;;;;;;;22.00;99.90;;;;;;4997962;28;20357;-78
2022/10/13 16:05:06;;;;;;;;;;;22.00;99.90;;;;;;4998655;28;19945;-79
2022/10/13 16:07:33;;;;;;;;;;;22.00;99.90;;;;;;4999125;28;20448;-79
2022/10/13 16:09:59;;;;;;;;;;;22.10;99.90;;;;;;4998339;28;19966;-79
2022/10/13 16:12:27;;;;;;;;;;;22.10;99.90;;;;;;4999051;28;20012;-79
2022/10/13 16:14:54;;;;;;;;;;;22.10;99.90;;;;;;4998620;28;19933;-79
2022/10/13 16:17:22;;;;;;;;;;;22.10;99.90;;;;;;4998958;28;20021;-79
2022/10/13 16:19:49;;;;;;;;;;;22.10;99.90;;;;;;4998434;28;20013;-79
2022/10/13 16:22:16;;;;;;;;;;;22.10;99.90;;;;;;4998309;28;20293;-79
2022/10/13 16:24:43;;;;;;;;;;;22.00;99.90;;;;;;4996858;28;20036;-78
2022/10/13 16:27:10;;;;;;;;;;;22.10;99.90;;;;;;4997303;28;20012;-78
2022/10/13 16:29:36;;;;;;;;;;;22.10;99.90;;;;;;4998675;28;20013;-78
2022/10/13 16:32:03;;;;;;;;;;;22.10;99.90;;;;;;4998171;28;20013;-78
2022/10/13 16:34:31;;;;;;;;;;;22.00;99.90;;;;;;4996637;28;20464;-78
2022/10/13 16:36:58;;;;;;;;;;;22.00;99.90;;;;;;4996276;28;19980;-78
2022/10/13 16:39:25;;;;;;;;;;;22.00;99.90;;;;;;4996403;28;20016;-78
2022/10/13 16:41:52;;;;;;;;;;;22.00;99.90;;;;;;4996111;28;20408;-78
2022/10/13 16:44:18;;;;;;;;;;;22.00;99.90;;;;;;4996241;28;20021;-78
2022/10/13 16:46:48;;;;;;;;;;;22.00;99.90;;;;;;4996687;28;19965;-78
2022/10/13 16:49:15;;;;;;;;;;;22.00;99.90;;;;;;4998691;28;19933;-78
2022/10/13 16:51:43;;;;;;;;;;;22.00;99.90;;;;;;4996936;28;19980;-78
2022/10/13 16:54:10;;;;;;;;;;;21.90;99.90;;;;;;4996824;28;20016;-78
2022/10/13 16:56:36;;;;;;;;;;;22.00;99.90;;;;;;4996588;28;19925;-79
2022/10/13 16:59:04;;;;;;;;;;;21.90;99.90;;;;;;4997840;28;20348;-78
2022/10/13 17:01:31;;;;;;;;;;;21.90;99.90;;;;;;4997563;28;20012;-80
2022/10/13 17:03:58;;;;;;;;;;;21.90;99.90;;;;;;5000274;28;20006;-79
2022/10/13 17:06:27;;;;;;;;;;;21.90;99.90;;;;;;4998540;28;19981;-79
2022/10/13 17:08:55;;;;;;;;;;;21.90;99.90;;;;;;4997504;28;19968;-78
2022/10/13 17:11:22;;;;;;;;;;;21.90;99.90;;;;;;4997093;28;20002;-78
2022/10/13 17:13:50;;;;;;;;;;;21.90;99.90;;;;;;4995856;28;19926;-78
2022/10/13 17:16:17;;;;;;;;;;;21.90;99.90;;;;;;4995565;28;20452;-78
2022/10/13 17:18:44;;;;;;;;;;;22.00;99.90;;;;;;4995477;28;20016;-79
2022/10/13 17:21:12;;;;;;;;;;;21.90;99.90;;;;;;4995454;28;20012;-78
2022/10/13 17:23:39;;;;;;;;;;;22.00;99.90;;;;;;4995585;28;19933;-78
2022/10/13 17:26:08;;;;;;;;;;;22.00;99.90;;;;;;4995930;28;20021;-78
2022/10/13 17:28:37;;;;;;;;;;;22.00;99.90;;;;;;4994858;28;21327;-78
2022/10/13 17:31:04;;;;;;;;;;;22.00;99.90;;;;;;4995923;28;19980;-78
2022/10/13 17:33:32;;;;;;;;;;;22.00;99.90;;;;;;4996492;28;20013;-78
2022/10/13 17:35:59;;;;;;;;;;;22.00;99.90;;;;;;4997053;28;19993;-78
2022/10/13 17:38:26;;;;;;;;;;;22.00;99.90;;;;;;4997080;28;19930;-80
2022/10/13 17:40:53;;;;;;;;;;;22.00;99.90;;;;;;4996969;28;20365;-79
2022/10/13 17:43:21;;;;;;;;;;;22.00;99.90;;;;;;4996464;28;19972;-79
2022/10/13 17:45:47;;;;;;;;;;;22.00;99.90;;;;;;4996641;28;19926;-79
2022/10/13 17:48:14;;;;;;;;;;;22.00;99.90;;;;;;4995926;28;20008;-79
2022/10/13 17:50:41;;;;;;;;;;;22.00;99.90;;;;;;4995819;28;19930;-78
2022/10/13 17:53:07;;;;;;;;;;;22.00;99.90;;;;;;4995816;28;19971;-78
2022/10/13 17:55:34;;;;;;;;;;;22.00;99.90;;;;;;4995729;28;20013;-79
2022/10/13 17:58:01;;;;;;;;;;;22.00;99.90;;;;;;4996335;28;19965;-79
2022/10/13 18:00:29;;;;;;;;;;;22.00;99.90;;;;;;4995148;28;20012;-79
2022/10/13 18:02:56;;;;;;;;;;;22.00;99.90;;;;;;4995741;28;20008;-79
2022/10/13 18:05:22;;;;;;;;;;;22.00;99.90;;;;;;4995938;28;20016;-79
2022/10/13 18:07:49;;;;;;;;;;;22.00;99.90;;;;;;4995939;28;19965;-79
2022/10/13 18:10:16;;;;;;;;;;;22.00;99.90;;;;;;4995721;28;20029;-79
2022/10/13 18:12:43;;;;;;;;;;;22.10;99.90;;;;;;4994889;28;19933;-79
2022/10/13 18:15:10;;;;;;;;;;;22.00;99.90;;;;;;4995296;28;19961;-79
2022/10/13 18:17:38;;;;;;;;;;;22.10;99.90;;;;;;4996261;28;20012;-80
2022/10/13 18:20:05;;;;;;;;;;;22.10;99.90;;;;;;4996546;28;20342;-80
2022/10/13 18:22:32;;;;;;;;;;;22.00;99.90;;;;;;4997389;28;20433;-79
2022/10/13 18:24:58;;;;;;;;;;;22.10;99.90;;;;;;4997054;28;19926;-79
2022/10/13 18:27:25;;;;;;;;;;;22.00;99.90;;;;;;4997153;28;20013;-79
2022/10/13 18:29:51;;;;;;;;;;;22.00;99.90;;;;;;4996664;28;20028;-79
2022/10/13 18:32:18;;;;;;;;;;;22.10;99.90;;;;;;4996966;28;20016;-80
2022/10/13 18:34:46;;;;;;;;;;;22.00;99.90;;;;;;4996276;28;20024;-80
2022/10/13 18:37:14;;;;;;;;;;;22.10;99.90;;;;;;4996055;28;19984;-80
2022/10/13 18:39:40;;;;;;;;;;;22.00;99.90;;;;;;4996301;28;19933;-80
2022/10/13 18:42:07;;;;;;;;;;;22.00;99.90;;;;;;4995854;28;19936;-80
2022/10/13 18:44:34;;;;;;;;;;;22.00;99.90;;;;;;4997156;28;20041;-80
2022/10/13 18:47:01;;;;;;;;;;;22.00;99.90;;;;;;4996403;28;19965;-80
2022/10/13 18:49:30;;;;;;;;;;;22.00;99.90;;;;;;4995945;28;19926;-80
2022/10/13 18:51:58;;;;;;;;;;;22.10;99.90;;;;;;4997014;28;19937;-79
2022/10/13 18:54:26;;;;;;;;;;;22.10;99.90;;;;;;4999143;28;19969;-79
2022/10/13 18:56:53;;;;;;;;;;;22.10;99.90;;;;;;4999060;28;20378;-79
2022/10/13 18:59:20;;;;;;;;;;;22.00;99.90;;;;;;4999044;28;19926;-79
2022/10/13 19:01:46;;;;;;;;;;;22.10;99.90;;;;;;4998798;28;19930;-79
2022/10/13 19:04:15;;;;;;;;;;;22.10;99.90;;;;;;4999119;28;20332;-79
2022/10/13 19:06:42;;;;;;;;;;;22.00;99.90;;;;;;4998839;28;19930;-79
2022/10/13 21:55:22;;;;;;;;;;;21.90;99.90;;;;;;1388689;26;19929;-76
2022/10/13 21:57:48;;;;;;;;;;;21.90;99.90;;;;;;4994963;28;20017;-76
2022/10/13 22:00:15;;;;;;;;;;;21.90;99.90;;;;;;4994822;28;20025;-76
2022/10/13 22:02:42;;;;;;;;;;;21.90;99.90;;;;;;4994562;28;19973;-75
2022/10/13 22:05:09;;;;;;;;;;;21.90;99.90;;;;;;4994574;28;20442;-75
2022/10/13 22:07:35;;;;;;;;;;;21.90;99.90;;;;;;4994833;28;20302;-75
2022/10/13 22:10:02;;;;;;;;;;;21.80;99.90;;;;;;4995252;28;19926;-75
2022/10/13 22:12:30;;;;;;;;;;;21.80;99.90;;;;;;4994744;28;20008;-75
2022/10/13 22:14:57;;;;;;;;;;;21.80;99.90;;;;;;4994589;28;19953;-75
2022/10/13 22:17:23;;;;;;;;;;;21.90;99.90;;;;;;4994373;28;20461;-75
2022/10/13 22:19:50;;;;;;;;;;;21.90;99.90;;;;;;4994331;28;20385;-75
2022/10/13 22:22:17;;;;;;;;;;;21.80;99.90;;;;;;4994547;28;20024;-75
2022/10/13 22:24:43;;;;;;;;;;;21.90;99.90;;;;;;4994600;28;20023;-75
2022/10/13 22:27:10;;;;;;;;;;;21.80;99.90;;;;;;4999720;28;20121;-75
2022/10/13 22:29:38;;;;;;;;;;;21.80;99.90;;;;;;5001027;28;19976;-75
2022/10/13 22:32:05;;;;;;;;;;;21.90;99.90;;;;;;5000737;28;20445;-75
2022/10/13 22:34:32;;;;;;;;;;;21.90;99.90;;;;;;5000730;28;20465;-75
2022/10/13 22:36:58;;;;;;;;;;;21.90;99.90;;;;;;5001059;28;20025;-75
2022/10/13 22:39:26;;;;;;;;;;;21.90;99.90;;;;;;5001003;28;19925;-75
2022/10/13 22:41:53;;;;;;;;;;;21.90;99.90;;;;;;5000629;28;20309;-75
2022/10/13 22:44:19;;;;;;;;;;;21.90;99.90;;;;;;5000984;28;20009;-75
2022/10/13 22:46:47;;;;;;;;;;;21.90;99.90;;;;;;5000961;28;20013;-75
2022/10/13 22:49:14;;;;;;;;;;;21.90;99.90;;;;;;5000847;28;19932;-75
2022/10/13 22:51:41;;;;;;;;;;;21.90;99.90;;;;;;5000556;28;19936;-75
2022/10/13 22:54:08;;;;;;;;;;;21.90;99.90;;;;;;5000887;28;19926;-75
2022/10/13 22:56:35;;;;;;;;;;;21.90;99.90;;;;;;5000573;28;20008;-75
2022/10/13 22:59:03;;;;;;;;;;;21.80;99.90;;;;;;5000576;28;20377;-75
2022/10/13 23:01:30;;;;;;;;;;;21.80;99.90;;;;;;5000786;28;20020;-75
2022/10/13 23:03:58;;;;;;;;;;;21.90;99.90;;;;;;5000790;28;19925;-75
2022/10/13 23:06:26;;;;;;;;;;;21.80;99.90;;;;;;5000813;28;19926;-75
2022/10/13 23:08:52;;;;;;;;;;;21.80;99.90;;;;;;5000468;28;20442;-75
2022/10/13 23:11:19;;;;;;;;;;;21.80;99.90;;;;;;5000572;28;20028;-75
2022/10/13 23:13:46;;;;;;;;;;;21.90;99.90;;;;;;5000722;28;20334;-75
2022/10/13 23:16:14;;;;;;;;;;;21.90;99.90;;;;;;5000754;28;19973;-75
2022/10/13 23:18:41;;;;;;;;;;;21.90;99.90;;;;;;5000729;28;19925;-75
2022/10/13 23:21:10;;;;;;;;;;;21.90;99.90;;;;;;5000329;28;20457;-76
2022/10/13 23:23:36;;;;;;;;;;;21.90;99.90;;;;;;5000660;28;20013;-75
2022/10/13 23:26:04;;;;;;;;;;;21.90;99.90;;;;;;5000351;28;20024;-76
2022/10/13 23:28:31;;;;;;;;;;;21.90;99.90;;;;;;5000585;28;19925;-75
2022/10/13 23:30:59;;;;;;;;;;;21.90;99.90;;;;;;5000412;28;19925;-75
2022/10/13 23:33:26;;;;;;;;;;;21.90;99.90;;;;;;5000259;28;19930;-75
2022/10/13 23:35:55;;;;;;;;;;;21.90;99.90;;;;;;5000200;28;20016;-75
2022/10/13 23:38:24;;;;;;;;;;;21.90;99.90;;;;;;4997717;28;20017;-75
2022/10/13 23:40:51;;;;;;;;;;;21.90;99.90;;;;;;4997350;28;19926;-75
2022/10/13 23:43:18;;;;;;;;;;;21.80;99.90;;;;;;4997381;28;20020;-75
2022/10/13 23:45:44;;;;;;;;;;;21.90;99.90;;;;;;4997086;28;20021;-75
2022/10/13 23:48:11;;;;;;;;;;;21.90;99.90;;;;;;4997323;28;19973;-75
2022/10/13 23:50:38;;;;;;;;;;;21.90;99.90;;;;;;4996834;28;20012;-75
2022/10/13 23:53:04;;;;;;;;;;;21.80;99.90;;;;;;4996921;28;20024;-75
2022/10/13 23:55:36;;;;;;;;;;;21.90;99.90;;;;;;4996980;28;20016;-75
2022/10/13 23:58:03;;;;;;;;;;;21.90;99.90;;;;;;4997185;28;20008;-75
